createdAt,value
2022-11-06T00:00:07.331Z,3.78
2022-11-06T00:03:29.021Z,3.73
2022-11-06T00:06:52.006Z,3.69
2022-11-06T00:10:13.306Z,3.69
2022-11-06T00:13:34.562Z,3.68
2022-11-06T00:16:56.239Z,3.62
2022-11-06T00:20:17.860Z,3.59
2022-11-06T00:23:41.586Z,3.57
2022-11-06T00:27:02.850Z,3.56
2022-11-06T00:30:24.657Z,3.51
2022-11-06T00:33:46.334Z,3.49
2022-11-06T00:37:07.554Z,3.47
2022-11-06T00:40:30.345Z,3.45
2022-11-06T00:43:53.858Z,3.42
2022-11-06T00:47:15.243Z,3.44
2022-11-06T00:50:36.531Z,3.43
2022-11-06T00:53:59.241Z,3.40
2022-11-06T00:57:22.437Z,3.35
2022-11-06T01:00:43.984Z,3.31
2022-11-06T01:04:06.954Z,3.30
2022-11-06T01:07:28.515Z,3.28
2022-11-06T01:10:49.743Z,3.28
2022-11-06T01:14:14.922Z,3.21
2022-11-06T01:17:36.914Z,3.24
2022-11-06T01:20:58.522Z,3.24
2022-11-06T01:24:22.000Z,3.22
2022-11-06T01:27:43.721Z,3.23
2022-11-06T01:31:07.563Z,3.24
2022-11-06T01:34:29.215Z,3.21
2022-11-06T01:37:50.470Z,3.22
2022-11-06T01:41:14.112Z,3.26
2022-11-06T01:45:12.532Z,3.28
2022-11-06T01:48:35.666Z,3.25
2022-11-06T01:52:02.021Z,3.24
2022-11-06T01:55:27.179Z,3.25
2022-11-06T01:58:51.336Z,3.26
2022-11-06T02:02:15.379Z,3.29
2022-11-06T02:05:38.320Z,3.30
2022-11-06T02:09:00.213Z,3.28
2022-11-06T02:12:34.315Z,3.31
2022-11-06T02:16:05.128Z,3.32
2022-11-06T02:19:46.949Z,3.27
2022-11-06T02:23:32.722Z,3.28
2022-11-06T02:27:05.111Z,3.28
2022-11-06T02:30:26.466Z,3.32
2022-11-06T02:33:52.748Z,3.33
2022-11-06T02:37:17.744Z,3.35
2022-11-06T02:40:43.649Z,3.38
2022-11-06T02:44:09.853Z,3.40
2022-11-06T02:47:34.680Z,3.46
2022-11-06T02:51:00.082Z,3.53
2022-11-06T02:54:24.816Z,3.60
2022-11-06T02:57:52.739Z,3.65
2022-11-06T03:01:23.509Z,3.69
2022-11-06T03:04:50.780Z,3.74
2022-11-06T03:08:19.516Z,3.76
2022-11-06T03:11:40.707Z,3.78
2022-11-06T03:15:11.906Z,3.82
2022-11-06T03:18:42.501Z,3.87
2022-11-06T03:22:09.864Z,3.90
2022-11-06T03:25:42.677Z,3.95
2022-11-06T03:29:11.806Z,3.99
2022-11-06T03:32:37.091Z,4.03
2022-11-06T03:36:05.554Z,4.04
2022-11-06T03:39:31.841Z,4.07
2022-11-06T03:42:57.605Z,4.10
2022-11-06T03:46:25.062Z,4.13
2022-11-06T03:49:53.286Z,4.17
2022-11-06T03:53:22.167Z,4.25
2022-11-06T03:56:49.302Z,4.33
2022-11-06T04:00:12.247Z,4.43
2022-11-06T04:03:36.869Z,4.49
2022-11-06T04:07:04.088Z,4.61
2022-11-06T04:10:45.022Z,4.70
2022-11-06T04:14:08.213Z,4.82
2022-11-06T04:17:30.997Z,4.93
2022-11-06T04:21:18.421Z,5.04
2022-11-06T04:25:06.472Z,5.15
2022-11-06T04:28:37.893Z,5.24
2022-11-06T04:32:07.184Z,5.29
2022-11-06T04:35:35.574Z,5.38
2022-11-06T04:39:06.096Z,5.41
2022-11-06T04:42:33.747Z,5.47
2022-11-06T04:45:59.547Z,5.50
2022-11-06T04:49:22.617Z,5.53
2022-11-06T04:52:46.192Z,5.55
2022-11-06T04:56:10.977Z,5.58
2022-11-06T04:59:36.374Z,5.62
2022-11-06T05:02:59.566Z,5.65
2022-11-06T05:06:23.545Z,5.67
2022-11-06T05:09:48.628Z,5.68
2022-11-06T05:13:11.057Z,5.68
2022-11-06T05:16:32.719Z,5.69
2022-11-06T05:19:55.479Z,5.69
2022-11-06T05:23:17.491Z,5.65
2022-11-06T05:26:39.239Z,5.67
2022-11-06T05:30:00.545Z,5.65
2022-11-06T05:33:22.124Z,5.63
2022-11-06T05:36:44.659Z,5.63
2022-11-06T05:40:08.453Z,5.62
2022-11-06T05:43:29.814Z,5.62
2022-11-06T05:46:51.305Z,5.61
2022-11-06T05:50:12.894Z,5.63
2022-11-06T05:53:37.820Z,5.59
2022-11-06T05:56:59.433Z,5.60
2022-11-06T06:00:21.371Z,5.61
2022-11-06T06:03:43.064Z,5.62
2022-11-06T06:07:04.918Z,5.61
2022-11-06T06:10:27.555Z,5.62
2022-11-06T06:13:49.391Z,5.59
2022-11-06T06:17:11.023Z,5.59
2022-11-06T06:20:32.533Z,5.58
2022-11-06T06:23:54.169Z,5.59
2022-11-06T06:27:17.223Z,5.60
2022-11-06T06:30:38.985Z,5.58
2022-11-06T06:34:00.491Z,5.60
2022-11-06T06:37:22.162Z,5.61
2022-11-06T06:40:50.974Z,5.62
2022-11-06T06:44:14.287Z,5.64
2022-11-06T06:47:37.089Z,5.69
2022-11-06T06:50:59.085Z,5.70
2022-11-06T06:54:24.536Z,5.73
2022-11-06T06:57:46.825Z,5.76
2022-11-06T07:01:10.831Z,5.81
2022-11-06T07:04:33.177Z,5.82
2022-11-06T07:07:54.945Z,5.87
2022-11-06T07:11:21.784Z,5.91
2022-11-06T07:14:47.655Z,5.94
2022-11-06T07:18:12.144Z,6.01
2022-11-06T07:21:34.436Z,6.03
2022-11-06T07:25:01.760Z,6.07
2022-11-06T07:28:23.961Z,6.12
2022-11-06T07:31:54.511Z,6.16
2022-11-06T07:35:17.463Z,6.21
2022-11-06T07:38:40.661Z,6.26
2022-11-06T07:42:01.778Z,6.28
2022-11-06T07:45:29.355Z,6.33
2022-11-06T07:48:51.178Z,6.35
2022-11-06T07:52:17.314Z,6.41
2022-11-06T07:55:42.424Z,6.47
2022-11-06T07:59:04.661Z,6.53
2022-11-06T08:02:26.420Z,6.60
2022-11-06T08:05:48.790Z,6.63
2022-11-06T08:09:32.255Z,6.69
2022-11-06T08:12:53.785Z,6.76
2022-11-06T08:16:16.070Z,6.81
2022-11-06T08:19:37.656Z,6.88
2022-11-06T08:23:11.019Z,6.92
2022-11-06T08:26:34.371Z,6.97
2022-11-06T08:29:55.542Z,7.03
2022-11-06T08:33:16.695Z,7.09
2022-11-06T08:36:40.561Z,7.17
2022-11-06T08:40:02.217Z,7.19
2022-11-06T08:43:31.556Z,7.21
2022-11-06T08:46:53.018Z,7.27
2022-11-06T08:50:14.660Z,7.31
2022-11-06T08:53:36.294Z,7.34
2022-11-06T08:57:00.156Z,7.39
2022-11-06T09:00:26.773Z,7.42
2022-11-06T09:04:04.633Z,7.49
2022-11-06T09:07:27.944Z,7.56
2022-11-06T09:14:40.423Z,7.71
2022-11-06T09:18:07.745Z,7.74
2022-11-06T09:21:32.750Z,7.76
2022-11-06T09:25:03.828Z,7.83
2022-11-06T09:28:25.771Z,7.89
2022-11-06T09:32:12.689Z,7.95
2022-11-06T09:35:38.123Z,8.02
2022-11-06T09:39:13.505Z,8.08
2022-11-06T09:42:48.141Z,8.14
2022-11-06T09:46:27.125Z,8.19
2022-11-06T09:49:52.915Z,8.23
2022-11-06T09:53:20.768Z,8.29
2022-11-06T09:56:43.379Z,8.35
2022-11-06T10:00:08.130Z,8.38
2022-11-06T10:03:38.181Z,8.45
2022-11-06T10:07:41.965Z,8.48
2022-11-06T10:10:58.920Z,8.53
2022-11-06T10:14:34.424Z,8.60
2022-11-06T10:18:05.984Z,8.67
2022-11-06T10:21:38.104Z,8.73
2022-11-06T10:25:10.899Z,8.79
2022-11-06T10:29:03.960Z,8.85
2022-11-06T10:32:54.024Z,8.92
2022-11-06T10:36:19.175Z,8.96
2022-11-06T10:39:47.642Z,9.01
2022-11-06T10:43:19.031Z,9.06
2022-11-06T10:46:52.769Z,9.10
2022-11-06T10:50:21.680Z,9.16
2022-11-06T10:53:55.617Z,9.18
2022-11-06T10:57:31.899Z,9.27
2022-11-06T11:01:08.016Z,9.33
2022-11-06T11:04:33.743Z,9.40
2022-11-06T11:07:55.335Z,9.47
2022-11-06T11:11:50.463Z,9.54
2022-11-06T11:15:22.166Z,9.56
2022-11-06T11:18:54.120Z,9.63
2022-11-06T11:22:32.968Z,9.67
2022-11-06T11:26:02.802Z,9.74
2022-11-06T11:29:27.498Z,9.78
2022-11-06T11:32:49.346Z,9.84
2022-11-06T11:36:11.593Z,9.90
2022-11-06T11:39:36.527Z,9.92
2022-11-06T11:43:22.457Z,9.98
2022-11-06T11:46:52.996Z,10.02
2022-11-06T11:50:29.359Z,10.06
2022-11-06T11:53:51.471Z,10.12
2022-11-06T11:57:28.162Z,10.16
2022-11-06T12:00:56.047Z,10.21
2022-11-06T12:04:23.717Z,10.24
2022-11-06T12:07:49.862Z,10.28
2022-11-06T12:11:16.432Z,10.33
2022-11-06T12:14:40.532Z,10.34
2022-11-06T12:18:05.642Z,10.36
2022-11-06T12:21:31.656Z,10.41
2022-11-06T12:25:01.803Z,10.47
2022-11-06T12:28:39.336Z,10.46
2022-11-06T12:32:09.930Z,10.45
2022-11-06T12:35:38.053Z,10.48
2022-11-06T12:39:13.055Z,10.52
2022-11-06T12:43:13.172Z,10.55
2022-11-06T12:46:45.739Z,10.60
2022-11-06T12:50:39.216Z,10.64
2022-11-06T12:54:15.817Z,10.65
2022-11-06T12:57:53.608Z,10.67
2022-11-06T13:01:27.821Z,10.69
2022-11-06T13:04:56.515Z,10.70
2022-11-06T13:08:32.263Z,10.75
2022-11-06T13:12:02.707Z,10.79
2022-11-06T13:15:33.805Z,10.81
2022-11-06T13:19:05.731Z,10.83
2022-11-06T13:22:31.229Z,10.88
2022-11-06T13:25:58.458Z,10.92
2022-11-06T13:29:23.694Z,10.96
2022-11-06T13:32:53.613Z,10.98
2022-11-06T13:36:18.464Z,11.03
2022-11-06T13:39:45.516Z,11.04
2022-11-06T13:43:12.354Z,11.08
2022-11-06T13:46:40.273Z,11.07
2022-11-06T13:50:12.411Z,11.10
2022-11-06T13:53:43.827Z,11.10
2022-11-06T13:57:50.757Z,11.12
2022-11-06T14:01:29.848Z,11.15
2022-11-06T14:05:21.921Z,11.15
2022-11-06T14:08:47.127Z,11.18
2022-11-06T14:12:16.349Z,11.21
2022-11-06T14:15:41.736Z,11.24
2022-11-06T14:19:06.772Z,11.25
2022-11-06T14:22:30.627Z,11.26
2022-11-06T14:26:05.091Z,11.25
2022-11-06T14:30:02.186Z,11.26
2022-11-06T14:33:59.170Z,11.26
2022-11-06T14:37:47.789Z,11.26
2022-11-06T14:41:44.767Z,11.26
2022-11-06T14:45:14.425Z,11.25
2022-11-06T14:48:42.149Z,11.24
2022-11-06T14:52:06.982Z,11.23
2022-11-06T14:55:33.027Z,11.22
2022-11-06T14:58:57.307Z,11.20
2022-11-06T15:02:25.174Z,11.17
2022-11-06T15:10:57.033Z,11.07
2022-11-06T15:15:02.613Z,11.00
2022-11-06T15:18:32.830Z,10.92
2022-11-06T15:21:58.974Z,10.85
2022-11-06T15:25:24.327Z,10.76
2022-11-06T15:28:49.876Z,10.65
2022-11-06T15:32:14.727Z,10.56
2022-11-06T15:35:37.486Z,10.45
2022-11-06T15:38:59.025Z,10.34
2022-11-06T15:42:23.562Z,10.21
2022-11-06T15:45:44.956Z,10.09
2022-11-06T15:49:09.078Z,9.98
2022-11-06T15:52:32.087Z,9.90
2022-11-06T15:55:59.059Z,9.80
2022-11-06T15:59:20.996Z,9.71
2022-11-06T16:02:54.148Z,9.64
2022-11-06T16:06:16.442Z,9.57
2022-11-06T16:09:42.813Z,9.50
2022-11-06T16:13:05.276Z,9.41
2022-11-06T16:16:35.698Z,9.37
2022-11-06T16:20:00.697Z,9.33
2022-11-06T16:23:33.594Z,9.30
2022-11-06T16:27:06.494Z,9.23
2022-11-06T16:30:28.376Z,9.17
2022-11-06T16:33:56.505Z,9.13
2022-11-06T16:37:45.354Z,9.10
2022-11-06T16:41:07.794Z,9.07
2022-11-06T16:44:45.911Z,9.03
2022-11-06T16:48:26.765Z,9.02
2022-11-06T16:51:48.426Z,9.02
2022-11-06T16:55:26.681Z,8.99
2022-11-06T16:58:53.361Z,8.98
2022-11-06T17:02:25.133Z,8.97
2022-11-06T17:05:53.850Z,8.95
2022-11-06T17:09:31.277Z,8.94
2022-11-06T17:12:52.763Z,8.96
2022-11-06T17:16:16.914Z,8.93
2022-11-06T17:19:39.765Z,8.92
2022-11-06T17:23:01.155Z,8.91
2022-11-06T17:26:25.834Z,8.88
2022-11-06T17:30:29.801Z,8.87
2022-11-06T17:34:26.616Z,8.87
2022-11-06T17:38:18.967Z,8.85
2022-11-06T17:42:33.584Z,8.82
2022-11-06T17:45:59.269Z,8.81
2022-11-06T17:53:56.141Z,8.78
2022-11-06T17:58:01.132Z,8.73
2022-11-06T18:01:34.302Z,8.69
2022-11-06T18:05:13.661Z,8.64
2022-11-06T18:09:00.500Z,8.60
2022-11-06T18:12:27.565Z,8.59
2022-11-06T18:15:52.787Z,8.58
2022-11-06T18:19:17.523Z,8.59
2022-11-06T18:22:58.265Z,8.59
2022-11-06T18:26:26.724Z,8.61
2022-11-06T18:29:50.591Z,8.61
2022-11-06T18:33:13.645Z,8.62
2022-11-06T18:37:02.303Z,8.64
2022-11-06T18:40:25.957Z,8.66
2022-11-06T18:43:56.361Z,8.67
2022-11-06T18:47:27.786Z,8.66
2022-11-06T18:51:08.071Z,8.67
2022-11-06T18:54:31.815Z,8.64
2022-11-06T18:58:02.197Z,8.62
2022-11-06T19:01:34.672Z,8.61
2022-11-06T19:04:57.695Z,8.57
2022-11-06T19:08:48.512Z,8.54
2022-11-06T19:12:13.030Z,8.50
2022-11-06T19:15:55.207Z,8.49
2022-11-06T19:19:37.776Z,8.49
2022-11-06T19:27:57.078Z,8.48
2022-11-06T19:31:42.931Z,8.49
2022-11-06T19:35:23.427Z,8.48
2022-11-06T19:39:23.202Z,8.48
2022-11-06T19:42:58.475Z,8.48
2022-11-06T19:46:29.541Z,8.47
2022-11-06T19:49:55.564Z,8.45
2022-11-06T19:53:18.766Z,8.43
2022-11-06T19:57:27.322Z,8.39
2022-11-06T20:00:23.186Z,8.37
2022-11-06T20:03:44.993Z,8.35
2022-11-06T20:07:08.870Z,8.31
2022-11-06T20:10:30.302Z,8.29
2022-11-06T20:13:53.666Z,8.28
2022-11-06T20:17:18.101Z,8.25
2022-11-06T20:20:39.880Z,8.22
2022-11-06T20:24:01.670Z,8.21
2022-11-06T20:27:23.118Z,8.19
2022-11-06T20:30:46.059Z,8.17
2022-11-06T20:34:07.841Z,8.16
2022-11-06T20:37:29.960Z,8.16
2022-11-06T20:40:55.911Z,8.16
2022-11-06T20:44:17.467Z,8.17
2022-11-06T20:47:40.559Z,8.18
2022-11-06T20:51:05.432Z,8.20
2022-11-06T20:54:26.874Z,8.22
2022-11-06T20:57:48.924Z,8.24
2022-11-06T21:01:12.871Z,8.26
2022-11-06T21:04:36.035Z,8.22
2022-11-06T21:07:58.382Z,8.22
2022-11-06T21:11:22.637Z,8.25
2022-11-06T21:14:44.182Z,8.28
2022-11-06T21:18:06.113Z,8.31
2022-11-06T21:21:33.082Z,8.35
2022-11-06T21:24:54.475Z,8.36
2022-11-06T21:28:15.921Z,8.36
2022-11-06T21:31:41.376Z,8.39
2022-11-06T21:35:07.261Z,8.41
2022-11-06T21:38:29.997Z,8.42
2022-11-06T21:41:51.264Z,8.40
2022-11-06T21:45:14.945Z,8.39
2022-11-06T21:48:52.422Z,8.41
2022-11-06T21:52:31.600Z,8.42
2022-11-06T21:56:00.184Z,8.42
2022-11-06T21:59:26.009Z,8.40
2022-11-06T22:02:47.528Z,8.41
2022-11-06T22:06:11.067Z,8.41
2022-11-06T22:09:32.780Z,8.42
2022-11-06T22:12:55.418Z,8.40
2022-11-06T22:16:20.412Z,8.40
2022-11-06T22:19:42.216Z,8.42
2022-11-06T22:23:03.512Z,8.38
2022-11-06T22:26:26.755Z,8.39
2022-11-06T22:29:49.734Z,8.37
2022-11-06T22:33:11.503Z,8.36
2022-11-06T22:36:33.449Z,8.37
2022-11-06T22:39:55.112Z,8.36
2022-11-06T22:43:16.533Z,8.36
2022-11-06T22:46:39.863Z,8.36
2022-11-06T22:50:01.441Z,8.36
2022-11-06T22:53:23.057Z,8.35
2022-11-06T22:56:44.644Z,8.34
2022-11-06T23:00:08.551Z,8.33
2022-11-06T23:03:32.069Z,8.34
2022-11-06T23:06:53.479Z,8.35
2022-11-06T23:10:14.683Z,8.36
2022-11-06T23:13:36.515Z,8.35
2022-11-06T23:17:01.526Z,8.36
2022-11-06T23:20:25.827Z,8.35
2022-11-06T23:23:47.391Z,8.35
2022-11-06T23:27:09.619Z,8.35
2022-11-06T23:30:31.121Z,8.36
2022-11-06T23:33:52.613Z,8.36
2022-11-06T23:37:15.209Z,8.38
2022-11-06T23:40:36.761Z,8.39
2022-11-06T23:43:59.035Z,8.40
2022-11-06T23:47:19.503Z,8.42
2022-11-06T23:50:41.330Z,8.43
2022-11-06T23:54:03.928Z,8.43
2022-11-06T23:57:25.279Z,8.45
